createdAt,value
2018-03-07T00:01:30.756Z,97.90
2018-03-07T00:03:58.320Z,97.90
2018-03-07T00:06:25.848Z,98.10
2018-03-07T00:08:53.401Z,97.90
2018-03-07T00:11:20.908Z,97.90
2018-03-07T00:13:48.421Z,97.90
2018-03-07T00:16:15.993Z,97.50
2018-03-07T00:18:44.272Z,98.00
2018-03-07T00:21:12.601Z,99.10
2018-03-07T00:23:40.138Z,98.70
2018-03-07T00:26:08.460Z,99.10
2018-03-07T00:28:36.005Z,98.80
2018-03-07T00:31:05.753Z,99.10
2018-03-07T00:33:33.313Z,99.40
2018-03-07T00:36:00.824Z,98.90
2018-03-07T00:38:28.360Z,99.00
2018-03-07T00:40:55.920Z,99.10
2018-03-07T00:43:23.486Z,98.90
2018-03-07T00:45:51.760Z,99.50
2018-03-07T00:48:20.036Z,99.60
2018-03-07T00:50:48.440Z,99.60
2018-03-07T00:53:16.712Z,99.90
2018-03-07T00:55:44.248Z,99.60
2018-03-07T00:58:11.785Z,99.70
2018-03-07T01:00:39.353Z,99.60
2018-03-07T01:03:07.660Z,99.10
2018-03-07T01:05:35.200Z,99.10
2018-03-07T01:08:03.498Z,99.70
2018-03-07T01:10:31.808Z,99.60
2018-03-07T01:12:59.367Z,99.60
2018-03-07T01:15:26.904Z,99.40
2018-03-07T01:17:54.468Z,99.40
2018-03-07T01:20:21.976Z,99.30
2018-03-07T01:22:49.520Z,98.10
2018-03-07T01:25:17.053Z,98.80
2018-03-07T01:27:44.564Z,98.80
2018-03-07T01:30:12.125Z,99.30
2018-03-07T01:32:39.636Z,99.50
2018-03-07T01:35:07.168Z,99.50
2018-03-07T01:37:34.689Z,99.60
2018-03-07T01:40:02.200Z,99.60
2018-03-07T01:42:29.731Z,99.50
2018-03-07T01:44:57.235Z,99.20
2018-03-07T01:47:24.767Z,98.30
2018-03-07T01:49:52.280Z,98.50
2018-03-07T01:52:19.816Z,99.10
2018-03-07T01:54:47.327Z,99.30
2018-03-07T01:57:14.939Z,97.00
2018-03-07T01:59:42.456Z,97.70
2018-03-07T02:02:09.999Z,98.80
2018-03-07T02:04:37.532Z,99.20
2018-03-07T02:07:05.840Z,99.70
2018-03-07T02:09:33.375Z,99.60
2018-03-07T02:12:00.887Z,99.90
2018-03-07T02:14:28.911Z,99.90
2018-03-07T02:16:56.452Z,99.90
2018-03-07T02:19:23.988Z,99.90
2018-03-07T02:21:52.292Z,99.90
2018-03-07T02:24:19.799Z,99.90
2018-03-07T02:26:47.368Z,99.90
2018-03-07T02:29:14.884Z,99.90
2018-03-07T02:31:43.212Z,99.90
2018-03-07T02:34:10.726Z,99.90
2018-03-07T02:36:38.239Z,99.90
2018-03-07T02:39:05.790Z,99.90
2018-03-07T02:41:34.176Z,99.90
2018-03-07T02:44:03.199Z,99.90
2018-03-07T02:46:30.708Z,99.90
2018-03-07T02:48:58.308Z,99.90
2018-03-07T02:51:25.820Z,99.90
2018-03-07T02:53:53.352Z,99.90
2018-03-07T02:56:20.895Z,99.90
2018-03-07T02:58:48.420Z,99.90
2018-03-07T03:01:15.957Z,99.90
2018-03-07T03:03:43.468Z,99.90
2018-03-07T03:06:11.009Z,99.90
2018-03-07T03:08:39.315Z,99.80
2018-03-07T03:11:06.856Z,99.80
2018-03-07T03:13:34.423Z,99.90
2018-03-07T03:16:01.933Z,99.90
2018-03-07T03:18:29.463Z,99.90
2018-03-07T03:20:56.972Z,97.80
2018-03-07T03:23:24.532Z,98.40
2018-03-07T03:25:52.807Z,99.70
2018-03-07T03:28:20.350Z,99.70
2018-03-07T03:30:47.929Z,99.90
2018-03-07T03:33:15.452Z,99.90
2018-03-07T03:35:42.994Z,99.90
2018-03-07T03:38:11.268Z,99.90
2018-03-07T03:40:38.799Z,99.90
2018-03-07T03:43:06.311Z,99.20
2018-03-07T03:45:33.848Z,99.90
2018-03-07T03:48:01.368Z,99.90
2018-03-07T03:50:29.697Z,99.90
2018-03-07T03:52:57.220Z,99.90
2018-03-07T03:55:25.496Z,99.90
2018-03-07T03:57:53.055Z,99.90
2018-03-07T04:00:20.597Z,99.90
2018-03-07T04:02:48.164Z,99.90
2018-03-07T04:05:15.672Z,99.70
2018-03-07T04:07:43.200Z,99.90
2018-03-07T04:10:10.736Z,99.90
2018-03-07T04:12:39.032Z,99.90
2018-03-07T04:15:07.307Z,99.90
2018-03-07T04:17:34.879Z,99.90
2018-03-07T04:20:03.184Z,99.90
2018-03-07T04:22:31.490Z,99.90
2018-03-07T04:24:59.020Z,99.90
2018-03-07T04:27:26.586Z,99.90
2018-03-07T04:29:54.120Z,99.90
2018-03-07T04:32:21.660Z,99.90
2018-03-07T04:34:49.219Z,99.90
2018-03-07T04:37:17.531Z,99.90
2018-03-07T04:39:45.063Z,99.90
2018-03-07T04:42:12.568Z,99.90
2018-03-07T04:44:40.795Z,99.90
2018-03-07T04:47:08.323Z,99.90
2018-03-07T04:49:35.932Z,99.90
2018-03-07T04:52:03.488Z,99.90
2018-03-07T04:54:31.048Z,99.90
2018-03-07T04:56:58.582Z,99.90
2018-03-07T04:59:26.087Z,99.90
2018-03-07T05:01:53.623Z,99.90
2018-03-07T05:04:21.900Z,99.90
2018-03-07T05:06:49.444Z,99.90
2018-03-07T05:09:17.016Z,99.90
2018-03-07T05:11:44.552Z,99.70
2018-03-07T05:14:12.132Z,99.70
2018-03-07T05:16:39.680Z,99.80
2018-03-07T05:19:08.008Z,99.80
2018-03-07T05:21:35.591Z,99.80
2018-03-07T05:24:03.219Z,99.70
2018-03-07T05:26:31.496Z,99.70
2018-03-07T05:28:59.808Z,99.90
2018-03-07T05:31:27.356Z,99.90
2018-03-07T05:33:55.632Z,99.70
2018-03-07T05:36:23.164Z,99.70
2018-03-07T05:38:50.676Z,99.90
2018-03-07T05:41:18.232Z,99.50
2018-03-07T05:43:45.768Z,99.80
2018-03-07T05:46:13.332Z,99.90
2018-03-07T05:48:40.848Z,99.90
2018-03-07T05:51:08.357Z,99.90
2018-03-07T05:53:35.929Z,99.90
2018-03-07T05:56:03.446Z,99.90
2018-03-07T05:58:31.012Z,99.90
2018-03-07T06:00:59.287Z,99.90
2018-03-07T06:03:26.819Z,99.90
2018-03-07T06:05:55.104Z,99.90
2018-03-07T06:08:23.405Z,99.90
2018-03-07T06:10:50.920Z,99.90
2018-03-07T06:13:18.460Z,99.90
2018-03-07T06:15:46.007Z,99.90
2018-03-07T06:18:14.280Z,99.90
2018-03-07T06:20:42.576Z,99.90
2018-03-07T06:23:10.852Z,99.90
2018-03-07T06:25:39.184Z,99.90
2018-03-07T06:28:06.695Z,99.90
2018-03-07T06:30:34.245Z,99.50
2018-03-07T06:33:01.820Z,99.90
2018-03-07T06:35:29.359Z,99.90
2018-03-07T06:37:56.928Z,99.90
2018-03-07T06:40:24.440Z,99.60
2018-03-07T06:42:51.980Z,99.20
2018-03-07T06:45:19.507Z,99.30
2018-03-07T06:47:47.432Z,99.30
2018-03-07T06:50:14.994Z,97.70
2018-03-07T06:52:42.975Z,96.90
2018-03-07T06:55:10.572Z,96.00
2018-03-07T06:57:38.079Z,95.00
2018-03-07T07:00:06.430Z,93.50
2018-03-07T07:02:33.999Z,93.50
2018-03-07T07:05:01.532Z,92.60
2018-03-07T07:07:29.091Z,92.00
2018-03-07T07:09:57.367Z,91.30
2018-03-07T07:12:24.956Z,91.30
2018-03-07T07:14:53.267Z,91.20
2018-03-07T07:17:20.795Z,91.20
2018-03-07T07:19:48.334Z,91.50
2018-03-07T07:22:15.868Z,91.60
2018-03-07T08:41:13.052Z,70.60
2018-03-07T08:43:40.624Z,70.20
2018-03-07T08:46:08.168Z,68.20
2018-03-07T08:48:36.504Z,68.30
2018-03-07T08:51:04.029Z,68.40
2018-03-07T08:53:31.568Z,70.30
2018-03-07T08:55:59.112Z,68.50
2018-03-07T08:58:26.658Z,70.40
2018-03-07T09:00:54.945Z,73.90
2018-03-07T09:03:24.220Z,75.10
2018-03-07T09:05:51.784Z,75.10
2018-03-07T09:08:19.319Z,77.30
2018-03-07T09:10:46.902Z,79.10
2018-03-07T09:13:14.777Z,80.80
2018-03-07T09:15:42.313Z,80.60
2018-03-07T09:18:10.627Z,81.90
2018-03-07T09:20:38.148Z,81.80
2018-03-07T09:23:05.694Z,81.90
2018-03-07T09:25:33.237Z,81.10
2018-03-07T09:28:00.801Z,81.30
2018-03-07T09:30:28.337Z,82.90
2018-03-07T09:32:55.917Z,84.90
2018-03-07T09:35:23.670Z,86.00
2018-03-07T09:37:51.181Z,86.90
2018-03-07T09:40:19.480Z,85.40
2018-03-07T09:42:47.024Z,85.40
2018-03-07T09:45:14.585Z,84.10
2018-03-07T09:47:42.156Z,83.80
2018-03-07T09:50:09.744Z,83.80
2018-03-07T09:52:38.057Z,83.60
2018-03-07T09:55:05.571Z,83.60
2018-03-07T09:57:33.136Z,82.90
2018-03-07T10:00:01.416Z,84.50
2018-03-07T10:02:29.335Z,84.40
2018-03-07T10:04:56.937Z,84.70
2018-03-07T10:07:24.528Z,86.10
2018-03-07T10:09:52.068Z,86.50
2018-03-07T10:12:20.349Z,87.20
2018-03-07T10:14:48.644Z,87.30
2018-03-07T10:17:16.932Z,88.10
2018-03-07T10:19:45.260Z,87.70
2018-03-07T10:22:12.776Z,87.60
2018-03-07T10:24:41.084Z,89.20
2018-03-07T10:27:09.484Z,90.00
2018-03-07T10:29:37.000Z,90.00
2018-03-07T10:32:04.536Z,90.10
2018-03-07T10:34:32.508Z,90.50
2018-03-07T10:37:00.048Z,91.20
2018-03-07T10:39:28.333Z,91.70
2018-03-07T10:41:56.640Z,91.80
2018-03-07T10:44:24.927Z,92.10
2018-03-07T10:46:53.200Z,92.40
2018-03-07T10:49:20.735Z,92.30
2018-03-07T10:51:48.251Z,92.60
2018-03-07T10:54:17.290Z,93.10
2018-03-07T10:56:44.800Z,93.10
2018-03-07T10:59:12.340Z,93.30
2018-03-07T11:01:39.848Z,94.30
2018-03-07T11:04:07.366Z,95.30
2018-03-07T11:06:34.895Z,95.00
2018-03-07T11:09:02.413Z,95.20
2018-03-07T11:11:29.944Z,97.10
2018-03-07T11:13:58.243Z,95.80
2018-03-07T11:16:25.805Z,95.80
2018-03-07T11:18:54.085Z,96.70
2018-03-07T11:21:21.600Z,96.70
2018-03-07T11:23:49.145Z,95.90
2018-03-07T11:26:17.433Z,95.00
2018-03-07T11:28:44.976Z,95.00
2018-03-07T11:31:12.489Z,94.00
2018-03-07T11:33:40.056Z,93.70
2018-03-07T11:36:07.573Z,92.60
2018-03-07T11:38:35.159Z,91.90
2018-03-07T11:41:03.482Z,92.60
2018-03-07T11:43:31.013Z,92.60
2018-03-07T11:46:05.137Z,92.70
2018-03-07T11:48:32.653Z,93.70
2018-03-07T11:51:01.261Z,91.50
2018-03-07T11:53:29.542Z,92.50
2018-03-07T11:55:57.838Z,92.00
2018-03-07T11:58:26.138Z,90.20
2018-03-07T12:00:53.657Z,90.30
2018-03-07T12:03:21.197Z,90.90
2018-03-07T12:05:48.708Z,90.30
2018-03-07T12:08:16.252Z,90.10
2018-03-07T12:10:43.762Z,90.60
2018-03-07T12:13:11.292Z,90.90
2018-03-07T12:15:38.821Z,90.30
2018-03-07T12:18:07.101Z,91.30
2018-03-07T12:20:36.008Z,91.80
2018-03-07T12:23:03.520Z,91.80
2018-03-07T12:25:31.312Z,91.10
2018-03-07T12:27:58.826Z,91.70
2018-03-07T12:30:27.099Z,92.00
2018-03-07T12:32:54.661Z,91.90
2018-03-07T12:35:22.160Z,91.90
2018-03-07T12:37:49.709Z,91.80
2018-03-07T12:40:17.227Z,91.70
2018-03-07T12:42:45.094Z,92.00
2018-03-07T12:45:12.608Z,92.10
2018-03-07T12:47:40.149Z,92.40
2018-03-07T12:50:07.687Z,92.80
2018-03-07T12:52:35.964Z,91.40
2018-03-07T12:55:04.264Z,91.70
2018-03-07T12:57:32.545Z,91.50
2018-03-07T13:00:00.844Z,91.50
2018-03-07T13:02:28.356Z,91.50
2018-03-07T13:04:55.870Z,91.70
2018-03-07T13:07:24.212Z,91.90
2018-03-07T13:09:51.725Z,91.90
2018-03-07T13:12:19.253Z,92.00
2018-03-07T13:14:46.768Z,91.60
2018-03-07T13:17:14.345Z,91.60
2018-03-07T13:19:42.621Z,91.00
2018-03-07T13:22:10.137Z,90.90
2018-03-07T13:24:37.673Z,91.00
2018-03-07T13:27:05.952Z,90.90
2018-03-07T13:29:34.261Z,89.10
2018-03-07T13:32:01.779Z,89.00
2018-03-07T13:34:29.329Z,89.70
2018-03-07T13:36:56.837Z,86.00
2018-03-07T13:39:24.352Z,85.40
2018-03-07T13:41:51.904Z,83.80
2018-03-07T13:44:20.173Z,84.40
2018-03-07T13:46:47.696Z,84.40
2018-03-07T13:49:15.196Z,83.30
2018-03-07T13:51:42.720Z,81.90
2018-03-07T13:54:10.241Z,82.60
2018-03-07T13:56:37.748Z,82.60
2018-03-07T13:59:06.044Z,80.60
2018-03-07T14:01:33.545Z,80.60
2018-03-07T14:04:01.524Z,80.80
2018-03-07T14:06:29.036Z,81.50
2018-03-07T14:08:56.573Z,80.80
2018-03-07T14:11:24.076Z,80.30
2018-03-07T14:13:51.580Z,80.70
2018-03-07T14:16:19.112Z,80.20
2018-03-07T14:18:46.616Z,80.30
2018-03-07T14:21:14.140Z,81.30
2018-03-07T14:23:41.640Z,82.20
2018-03-07T14:26:10.201Z,82.30
2018-03-07T14:28:37.712Z,82.20
2018-03-07T14:31:05.220Z,82.80
2018-03-07T14:33:32.743Z,83.20
2018-03-07T14:36:01.016Z,81.20
2018-03-07T14:38:28.543Z,81.30
2018-03-07T14:40:56.040Z,82.50
2018-03-07T14:43:23.568Z,81.70
2018-03-07T14:45:51.076Z,82.00
2018-03-07T14:48:19.241Z,83.40
2018-03-07T14:50:46.776Z,82.50
2018-03-07T14:53:15.048Z,82.80
2018-03-07T14:55:42.575Z,82.70
2018-03-07T14:58:10.084Z,82.80
2018-03-07T15:00:37.886Z,82.80
2018-03-07T15:03:05.399Z,82.60
2018-03-07T15:05:32.905Z,82.80
2018-03-07T15:08:00.436Z,83.50
2018-03-07T15:10:27.940Z,82.90
2018-03-07T15:12:55.468Z,82.70
2018-03-07T15:15:22.976Z,82.70
2018-03-07T15:17:50.508Z,82.70
2018-03-07T15:20:18.012Z,82.70
2018-03-07T15:22:45.523Z,82.70
2018-03-07T15:25:13.052Z,82.60
2018-03-07T15:27:40.556Z,82.80
2018-03-07T15:30:08.851Z,82.80
2018-03-07T15:32:36.355Z,82.70
2018-03-07T15:35:03.913Z,83.80
2018-03-07T15:37:31.408Z,82.60
2018-03-07T15:39:58.946Z,82.60
2018-03-07T15:42:26.473Z,83.10
2018-03-07T15:44:53.985Z,83.10
2018-03-07T15:47:21.508Z,83.50
2018-03-07T15:49:49.013Z,82.60
2018-03-07T15:52:16.572Z,83.10
2018-03-07T15:54:44.123Z,82.60
2018-03-07T15:57:11.696Z,83.50
2018-03-07T15:59:39.301Z,83.60
2018-03-07T16:02:06.829Z,83.60
2018-03-07T16:04:34.360Z,82.60
2018-03-07T16:07:01.860Z,82.70
2018-03-07T16:09:30.161Z,82.90
2018-03-07T16:11:57.700Z,82.70
2018-03-07T16:14:25.204Z,83.70
2018-03-07T16:16:52.752Z,83.00
2018-03-07T16:19:21.033Z,82.60
2018-03-07T16:21:48.541Z,82.50
2018-03-07T16:24:16.063Z,82.20
2018-03-07T16:26:43.559Z,81.90
2018-03-07T16:29:11.883Z,82.50
2018-03-07T16:31:39.384Z,82.40
2018-03-07T16:34:06.947Z,82.10
2018-03-07T16:36:34.436Z,82.00
2018-03-07T16:39:01.940Z,81.70
2018-03-07T16:41:29.833Z,80.90
2018-03-07T16:43:57.371Z,81.00
2018-03-07T16:46:25.648Z,80.50
2018-03-07T16:48:53.175Z,80.50
2018-03-07T16:51:20.700Z,79.80
2018-03-07T16:53:49.318Z,80.00
2018-03-07T16:56:16.864Z,79.90
2018-03-07T16:58:44.355Z,79.20
2018-03-07T17:01:11.889Z,80.10
2018-03-07T17:03:40.172Z,80.80
2018-03-07T17:06:07.992Z,80.30
2018-03-07T17:08:35.507Z,80.70
2018-03-07T17:11:03.048Z,80.90
2018-03-07T17:13:30.556Z,81.80
2018-03-07T17:15:58.068Z,80.70
2018-03-07T17:18:26.371Z,82.10
2018-03-07T17:20:53.876Z,82.00
2018-03-07T17:23:21.376Z,81.90
2018-03-07T17:25:49.673Z,82.70
2018-03-07T17:28:17.945Z,82.70
2018-03-07T17:30:45.475Z,82.70
2018-03-07T17:33:12.976Z,83.30
2018-03-07T17:35:40.476Z,85.40
2018-03-07T17:38:08.777Z,87.20
2018-03-07T17:40:36.284Z,87.20
2018-03-07T17:43:03.789Z,88.50
2018-03-07T17:45:31.322Z,88.40
2018-03-07T17:47:59.496Z,90.00
2018-03-07T17:50:27.003Z,91.00
2018-03-07T17:52:54.572Z,91.80
2018-03-07T17:55:22.076Z,91.50
2018-03-07T17:57:49.612Z,92.00
2018-03-07T18:00:17.120Z,93.10
2018-03-07T18:02:44.624Z,93.30
2018-03-07T18:05:12.168Z,93.70
2018-03-07T18:07:39.676Z,94.70
2018-03-07T18:10:07.210Z,95.00
2018-03-07T18:12:36.253Z,95.30
2018-03-07T18:15:04.553Z,96.40
2018-03-07T18:17:32.107Z,96.30
2018-03-07T18:19:59.611Z,96.70
2018-03-07T18:22:27.144Z,97.30
2018-03-07T18:24:54.652Z,97.60
2018-03-07T18:27:22.155Z,97.20
2018-03-07T18:29:49.689Z,97.40
2018-03-07T18:32:17.197Z,97.50
2018-03-07T18:34:44.731Z,97.40
2018-03-07T18:37:12.240Z,97.30
2018-03-07T18:39:39.767Z,97.50
2018-03-07T18:42:07.291Z,97.50
2018-03-07T18:44:34.808Z,97.50
2018-03-07T18:47:02.352Z,96.90
2018-03-07T18:49:30.917Z,97.20
2018-03-07T18:52:00.130Z,97.20
2018-03-07T18:54:27.668Z,97.20
2018-03-07T18:56:55.944Z,97.40
2018-03-07T18:59:23.492Z,97.40
2018-03-07T19:01:51.012Z,96.70
2018-03-07T19:04:19.276Z,97.80
2018-03-07T19:06:46.808Z,97.80
2018-03-07T19:09:14.319Z,98.10
2018-03-07T19:11:41.858Z,98.10
2018-03-07T19:14:09.360Z,97.40
2018-03-07T19:16:36.879Z,97.90
2018-03-07T19:19:04.405Z,97.40
2018-03-07T19:21:32.676Z,97.70
2018-03-07T19:24:00.257Z,97.70
2018-03-07T19:26:27.736Z,97.10
2018-03-07T19:28:56.006Z,97.80
2018-03-07T19:31:23.528Z,97.80
2018-03-07T19:33:51.036Z,98.00
2018-03-07T19:36:18.563Z,98.30
2018-03-07T19:38:46.075Z,98.00
2018-03-07T19:41:13.584Z,98.10
2018-03-07T19:43:41.880Z,98.60
2018-03-07T19:46:09.404Z,98.60
2018-03-07T19:48:36.940Z,98.90
2018-03-07T19:51:04.508Z,99.00
2018-03-07T19:53:32.020Z,98.90
2018-03-07T19:55:59.553Z,99.00
2018-03-07T19:58:27.060Z,99.00
2018-03-07T20:00:54.852Z,99.40
2018-03-07T20:03:22.363Z,99.50
2018-03-07T20:05:49.872Z,99.70
2018-03-07T20:08:18.172Z,99.90
2018-03-07T20:10:45.684Z,99.90
2018-03-07T20:13:13.218Z,99.90
2018-03-07T20:15:41.195Z,99.90
2018-03-07T20:18:08.712Z,99.90
2018-03-07T20:20:36.245Z,99.90
2018-03-07T20:23:03.756Z,99.90
2018-03-07T20:25:31.288Z,99.90
2018-03-07T20:27:59.589Z,99.90
2018-03-07T20:30:27.878Z,99.90
2018-03-07T20:32:56.173Z,99.90
2018-03-07T20:35:24.449Z,99.90
2018-03-07T20:37:52.837Z,99.90
2018-03-07T20:40:21.120Z,99.90
2018-03-07T20:42:49.424Z,99.90
2018-03-07T20:45:17.709Z,99.90
2018-03-07T20:47:45.996Z,99.90
2018-03-07T20:50:14.296Z,99.90
2018-03-07T20:52:41.816Z,99.90
2018-03-07T20:55:09.343Z,99.90
2018-03-07T20:57:36.855Z,99.90
2018-03-07T21:00:04.692Z,99.90
2018-03-07T21:02:32.218Z,99.90
2018-03-07T21:04:59.731Z,99.90
2018-03-07T21:07:27.260Z,99.90
2018-03-07T21:09:54.769Z,99.90
2018-03-07T21:12:22.300Z,99.90
2018-03-07T21:14:49.813Z,99.20
2018-03-07T21:17:17.347Z,98.10
2018-03-07T21:19:44.866Z,98.10
2018-03-07T21:22:12.376Z,97.30
2018-03-07T21:24:39.904Z,97.60
2018-03-07T21:27:07.412Z,97.20
2018-03-07T21:29:34.940Z,97.60
2018-03-07T21:32:02.467Z,96.90
2018-03-07T21:34:30.017Z,97.50
2018-03-07T21:36:57.534Z,97.90
2018-03-07T21:39:25.816Z,98.20
2018-03-07T21:41:54.121Z,98.30
2018-03-07T21:44:21.645Z,98.20
2018-03-07T21:46:49.176Z,98.50
2018-03-07T21:49:16.684Z,98.40
2018-03-07T21:51:44.220Z,98.50
2018-03-07T21:54:11.744Z,99.20
2018-03-07T21:56:40.024Z,99.40
2018-03-07T21:59:07.557Z,99.40
2018-03-07T22:01:35.072Z,99.50
2018-03-07T22:04:02.613Z,99.50
2018-03-07T22:06:30.500Z,99.80
2018-03-07T22:08:58.039Z,99.60
2018-03-07T22:11:25.548Z,99.90
2018-03-07T22:13:53.061Z,99.90
2018-03-07T22:16:20.600Z,99.90
2018-03-07T22:18:48.112Z,99.90
2018-03-07T22:21:15.788Z,99.90
2018-03-07T22:23:43.304Z,99.90
2018-03-07T22:26:11.120Z,99.90
2018-03-07T22:28:38.633Z,99.90
2018-03-07T22:31:06.157Z,99.90
2018-03-07T22:33:33.689Z,99.90
2018-03-07T22:36:01.814Z,99.90
2018-03-07T22:38:29.344Z,99.90
2018-03-07T22:40:56.865Z,99.90
2018-03-07T22:43:24.652Z,99.90
2018-03-07T22:45:52.164Z,99.90
2018-03-07T22:48:19.674Z,99.80
2018-03-07T22:50:47.210Z,99.90
2018-03-07T22:53:14.729Z,99.90
2018-03-07T22:55:42.260Z,99.90
2018-03-07T22:58:10.540Z,99.90
2018-03-07T23:00:43.800Z,99.90
2018-03-07T23:03:11.307Z,99.90
2018-03-07T23:05:38.811Z,99.90
2018-03-07T23:08:06.354Z,99.90
2018-03-07T23:10:34.636Z,99.90
2018-03-07T23:13:02.181Z,99.90
2018-03-07T23:15:29.691Z,99.90
2018-03-07T23:17:57.199Z,99.90
2018-03-07T23:20:24.733Z,99.90
2018-03-07T23:22:53.019Z,99.90
2018-03-07T23:25:21.316Z,99.90
2018-03-07T23:27:49.595Z,99.90
2018-03-07T23:30:17.147Z,99.90
2018-03-07T23:32:44.655Z,99.90
2018-03-07T23:35:12.927Z,99.90
2018-03-07T23:37:40.456Z,99.90
2018-03-07T23:40:07.973Z,99.90
2018-03-07T23:42:36.268Z,99.90
2018-03-07T23:45:04.543Z,99.90
2018-03-07T23:47:32.828Z,99.90
2018-03-07T23:50:00.812Z,99.90
2018-03-07T23:52:29.094Z,99.90
2018-03-07T23:54:56.628Z,99.90
2018-03-07T23:57:24.139Z,99.90
2018-03-07T23:59:51.677Z,99.90
